Time;durP1;ratioP1;P1;durP2;ratioP2;P2;SDS_P1;SDS_P2;PMS_P1;PMS_P2;Temp;Humidity;BMP_temperature;BMP_pressure;BME280_temperature;BME280_humidity;BME280_pressure;Samples;Min_cycle;Max_cycle;Signal;HPM_P1;HPM_P2
2022/09/24 00:01:55;;;;;;;3.33;2.00;;;13.90;85.80;;;;;;4870028;29;20045;-75
2022/09/24 00:04:25;;;;;;;2.75;1.70;;;14.00;85.90;;;;;;4880485;29;20052;-75
2022/09/24 00:06:50;;;;;;;2.75;1.67;;;13.90;86.00;;;;;;4897241;29;20068;-75
2022/09/24 00:09:20;;;;;;;2.67;1.77;;;13.90;86.00;;;;;;4876117;29;20519;-76
2022/09/24 00:11:48;;;;;;;2.72;1.73;;;13.90;86.10;;;;;;4865053;29;20032;-75
2022/09/24 00:14:15;;;;;;;3.13;1.80;;;14.00;86.10;;;;;;4897161;29;20049;-75
2022/09/24 00:16:43;;;;;;;2.15;1.58;;;13.90;86.10;;;;;;4897132;29;20045;-75
2022/09/24 00:19:10;;;;;;;2.53;1.50;;;13.80;86.00;;;;;;4897370;29;20028;-75
2022/09/24 00:21:37;;;;;;;2.03;1.63;;;13.90;86.20;;;;;;4896979;29;20036;-75
2022/09/24 00:24:06;;;;;;;2.40;1.63;;;13.90;86.20;;;;;;4896869;29;20040;-75
2022/09/24 00:29:19;;;;;;;2.33;1.70;;;13.90;86.30;;;;;;4882338;29;20041;-75
2022/09/24 00:31:44;;;;;;;2.53;1.65;;;13.90;86.30;;;;;;4851196;29;20373;-75
2022/09/24 00:34:10;;;;;;;2.55;1.75;;;13.80;86.30;;;;;;4897272;29;20056;-75
2022/09/24 00:36:36;;;;;;;2.88;1.75;;;13.90;86.40;;;;;;4864972;29;20053;-75
2022/09/24 00:39:03;;;;;;;2.33;1.63;;;13.90;86.50;;;;;;4897097;29;20044;-75
2022/09/24 00:41:32;;;;;;;2.35;1.50;;;13.90;86.50;;;;;;4896474;29;20040;-75
2022/09/24 00:43:58;;;;;;;3.05;1.63;;;13.80;86.50;;;;;;4864834;29;20079;-75
2022/09/24 00:46:39;;;;;;;2.92;1.90;;;13.80;86.60;;;;;;4871789;29;20041;-76
2022/09/24 00:49:12;;;;;;;2.20;1.50;;;13.80;86.60;;;;;;4879789;29;20040;-75
2022/09/24 00:51:40;;;;;;;2.55;1.70;;;13.80;86.60;;;;;;4880102;29;20283;-75
2022/09/24 00:54:10;;;;;;;2.35;1.70;;;13.80;86.60;;;;;;4896334;29;20399;-75
2022/09/24 00:56:39;;;;;;;2.15;1.65;;;13.80;86.70;;;;;;4879802;29;20063;-75
2022/09/24 00:59:10;;;;;;;2.42;1.52;;;13.70;86.70;;;;;;4864563;29;20064;-75
2022/09/24 01:01:36;;;;;;;2.40;1.58;;;13.70;86.70;;;;;;4896413;29;20040;-75
2022/09/24 01:04:04;;;;;;;2.75;1.67;;;13.70;86.80;;;;;;4895980;29;20091;-75
2022/09/24 01:06:30;;;;;;;2.42;1.50;;;13.70;86.80;;;;;;4896186;29;20056;-75
2022/09/24 01:08:57;;;;;;;2.33;1.50;;;13.70;86.80;;;;;;4896264;29;20096;-75
2022/09/24 01:11:47;;;;;;;2.97;1.65;;;13.70;86.90;;;;;;4863902;29;20082;-75
2022/09/24 01:14:30;;;;;;;2.60;1.73;;;13.80;87.00;;;;;;4896645;29;20044;-75
2022/09/24 01:17:16;;;;;;;2.58;1.73;;;13.70;87.00;;;;;;4896291;29;20181;-75
2022/09/24 01:20:13;;;;;;;3.05;1.80;;;13.70;87.00;;;;;;4896411;29;20053;-75
2022/09/24 01:23:15;;;;;;;2.70;1.63;;;13.70;87.10;;;;;;4895801;29;20029;-75
2022/09/24 01:26:09;;;;;;;2.47;1.60;;;13.70;87.10;;;;;;4882815;29;20032;-75
2022/09/24 01:29:06;;;;;;;3.33;1.85;;;13.70;87.20;;;;;;4895983;29;20044;-75
2022/09/24 01:31:39;;;;;;;2.90;1.98;;;13.70;87.20;;;;;;4895916;29;20037;-76
2022/09/24 01:34:07;;;;;;;3.58;1.98;;;13.70;87.10;;;;;;4895333;29;20091;-75
2022/09/24 01:36:36;;;;;;;3.97;2.30;;;13.70;87.10;;;;;;4895714;29;20032;-75
2022/09/24 01:39:04;;;;;;;3.92;2.28;;;13.60;87.10;;;;;;4896389;29;20033;-75
2022/09/24 01:41:33;;;;;;;3.38;1.98;;;13.60;87.10;;;;;;4867961;29;20164;-75
2022/09/24 01:44:04;;;;;;;4.25;2.20;;;13.60;87.20;;;;;;4895957;29;20045;-75
2022/09/24 01:46:30;;;;;;;;;;;13.60;87.30;;;;;;4896581;29;20119;-75
2022/09/24 01:48:57;;;;;;;3.33;1.95;;;13.70;87.30;;;;;;4863460;29;19914;-75
2022/09/24 01:51:32;;;;;;;2.72;1.67;;;13.60;87.10;;;;;;4895988;29;20508;-75
2022/09/24 01:54:10;;;;;;;2.88;1.70;;;13.60;87.20;;;;;;4879501;29;20048;-75
2022/09/24 01:56:41;;;;;;;3.20;1.75;;;13.50;87.10;;;;;;4895970;29;20047;-75
2022/09/24 01:59:24;;;;;;;3.22;2.10;;;13.60;87.30;;;;;;4895988;29;20043;-75
2022/09/24 02:01:58;;;;;;;2.85;1.80;;;13.60;87.30;;;;;;4879693;29;20036;-75
2022/09/24 02:04:27;;;;;;;3.03;1.95;;;13.70;87.40;;;;;;4895332;29;20047;-75
2022/09/24 02:06:59;;;;;;;3.53;2.10;;;13.60;87.30;;;;;;4895518;29;20472;-75
2022/09/24 02:09:37;;;;;;;3.00;1.77;;;13.60;87.30;;;;;;4895447;29;20485;-75
2022/09/24 02:12:11;;;;;;;4.07;1.92;;;13.50;87.40;;;;;;4863389;29;20072;-75
2022/09/24 02:14:47;;;;;;;3.40;1.95;;;13.70;87.50;;;;;;4863937;29;20101;-75
2022/09/24 02:17:14;;;;;;;3.17;1.90;;;13.50;87.40;;;;;;4895437;29;20037;-75
2022/09/24 02:19:41;;;;;;;2.67;1.73;;;13.50;87.50;;;;;;4878847;29;20041;-75
2022/09/24 02:22:09;;;;;;;3.25;2.00;;;13.50;87.50;;;;;;4895441;29;20036;-75
2022/09/24 02:24:49;;;;;;;2.95;1.80;;;13.50;87.50;;;;;;4895451;29;20032;-75
2022/09/24 02:27:15;;;;;;;2.92;1.90;;;13.50;87.60;;;;;;4878880;29;20039;-74
2022/09/24 02:29:41;;;;;;;2.58;1.60;;;13.50;87.60;;;;;;4895386;29;20934;-75
2022/09/24 02:32:12;;;;;;;2.72;1.67;;;13.50;87.60;;;;;;4895175;29;20111;-75
2022/09/24 02:34:45;;;;;;;2.03;1.48;;;13.50;87.70;;;;;;4895708;29;20052;-75
2022/09/24 02:37:14;;;;;;;1.83;1.30;;;13.50;87.70;;;;;;4895234;29;20455;-75
2022/09/24 02:39:41;;;;;;;2.20;1.40;;;13.50;87.60;;;;;;4863244;29;20384;-75
2022/09/24 02:42:09;;;;;;;2.60;1.50;;;13.50;87.70;;;;;;4895403;29;20056;-75
2022/09/24 02:44:35;;;;;;;2.55;1.50;;;13.50;87.70;;;;;;4895320;29;20036;-76
2022/09/24 02:47:01;;;;;;;3.03;1.70;;;13.50;87.70;;;;;;4898389;29;20053;-75
2022/09/24 02:49:27;;;;;;;3.05;1.77;;;13.50;87.70;;;;;;4898537;29;20033;-76
2022/09/24 02:51:54;;;;;;;2.90;1.60;;;13.50;87.70;;;;;;4866064;29;20041;-75
2022/09/24 02:54:21;;;;;;;2.30;1.60;;;13.50;87.80;;;;;;4898341;29;20044;-75
2022/09/24 02:56:47;;;;;;;3.22;1.90;;;13.50;87.80;;;;;;4860268;29;20387;-75
2022/09/24 02:59:13;;;;;;;2.33;1.63;;;13.50;87.80;;;;;;4898128;29;20045;-75
2022/09/24 03:01:39;;;;;;;2.88;1.90;;;13.50;87.80;;;;;;4898689;29;20029;-75
2022/09/24 03:04:05;;;;;;;2.55;1.67;;;13.50;87.90;;;;;;4881456;29;20048;-75
2022/09/24 03:06:31;;;;;;;2.58;1.60;;;13.50;87.90;;;;;;4898611;29;20088;-74
2022/09/24 03:08:57;;;;;;;2.80;1.77;;;13.50;87.80;;;;;;4866076;29;20119;-75
2022/09/24 03:11:23;;;;;;;3.30;1.70;;;13.50;87.80;;;;;;4881775;29;20044;-75
2022/09/24 03:13:50;;;;;;;2.25;1.55;;;13.50;87.90;;;;;;4881277;29;20043;-75
2022/09/24 03:16:16;;;;;;;2.55;1.60;;;13.50;87.80;;;;;;4898110;29;20041;-75
2022/09/24 03:18:42;;;;;;;2.40;1.50;;;13.50;87.80;;;;;;4881892;29;20391;-75
2022/09/24 03:21:11;;;;;;;3.05;1.90;;;13.50;87.90;;;;;;4866741;29;20030;-75
2022/09/24 03:23:37;;;;;;;2.55;1.63;;;13.50;88.50;;;;;;4899202;29;20145;-76
2022/09/24 03:26:03;;;;;;;2.70;1.58;;;13.50;87.90;;;;;;4898903;29;20542;-75
2022/09/24 03:28:29;;;;;;;3.28;1.60;;;13.50;87.90;;;;;;4899187;29;20036;-75
2022/09/24 03:31:02;;;;;;;2.03;1.40;;;13.50;87.90;;;;;;4899505;29;20041;-76
2022/09/24 03:33:30;;;;;;;2.78;1.60;;;13.50;87.90;;;;;;4899852;29;20041;-75
2022/09/24 03:36:00;;;;;;;2.95;1.67;;;13.50;88.00;;;;;;4899949;29;20083;-76
2022/09/24 03:38:26;;;;;;;2.42;1.40;;;13.50;88.00;;;;;;4899119;29;20111;-75
2022/09/24 03:40:52;;;;;;;3.30;1.70;;;13.50;88.00;;;;;;4882195;29;20099;-76
2022/09/24 03:43:18;;;;;;;2.67;1.77;;;13.50;88.00;;;;;;4899765;29;20128;-76
2022/09/24 03:45:44;;;;;;;2.58;1.45;;;13.40;87.90;;;;;;4867758;29;20518;-76
2022/09/24 03:48:10;;;;;;;2.08;1.40;;;13.50;88.10;;;;;;4883191;29;20480;-76
2022/09/24 03:50:36;;;;;;;2.00;1.40;;;13.50;88.00;;;;;;4852335;29;20104;-75
2022/09/24 03:53:02;;;;;;;2.42;1.45;;;13.50;88.00;;;;;;4899257;29;20365;-75
2022/09/24 03:55:28;;;;;;;2.25;1.42;;;13.50;88.00;;;;;;4882812;29;20044;-75
2022/09/24 03:57:53;;;;;;;2.05;1.27;;;13.50;88.00;;;;;;4899600;29;20040;-75
2022/09/24 04:00:19;;;;;;;1.70;1.25;;;13.50;88.00;;;;;;4899935;29;20061;-75
2022/09/24 04:02:46;;;;;;;2.55;1.60;;;13.50;88.00;;;;;;4899432;29;20037;-75
2022/09/24 04:05:12;;;;;;;2.10;1.40;;;13.50;88.00;;;;;;4898811;29;20025;-75
2022/09/24 04:07:38;;;;;;;2.20;1.33;;;13.50;88.00;;;;;;4898823;29;20029;-75
2022/09/24 04:10:04;;;;;;;1.98;1.48;;;13.50;88.00;;;;;;4872348;29;20036;-75
2022/09/24 04:12:30;;;;;;;2.40;1.75;;;13.50;88.00;;;;;;4899626;29;20053;-75
2022/09/24 04:14:56;;;;;;;2.58;1.50;;;13.40;87.90;;;;;;4867004;29;20044;-75
2022/09/24 04:17:21;;;;;;;2.85;1.65;;;13.50;88.00;;;;;;4882299;29;20503;-76
2022/09/24 04:19:47;;;;;;;2.20;1.42;;;13.50;88.10;;;;;;4900467;29;20123;-75
2022/09/24 04:22:13;;;;;;;2.63;1.75;;;13.50;88.10;;;;;;4899102;29;20031;-75
2022/09/24 04:24:39;;;;;;;2.17;1.55;;;13.50;88.00;;;;;;4899266;29;20097;-75
2022/09/24 04:27:05;;;;;;;2.45;1.52;;;13.40;88.10;;;;;;4882460;29;20048;-75
2022/09/24 04:29:30;;;;;;;2.15;1.40;;;13.40;88.00;;;;;;4882398;29;20036;-76
2022/09/24 04:31:56;;;;;;;2.95;1.85;;;13.50;88.70;;;;;;4866535;29;20060;-76
2022/09/24 04:34:25;;;;;;;2.80;1.60;;;13.50;88.10;;;;;;4900418;29;20040;-75
2022/09/24 04:36:51;;;;;;;2.35;1.60;;;13.50;88.10;;;;;;4852483;29;20040;-75
2022/09/24 04:39:16;;;;;;;2.70;1.67;;;13.50;88.10;;;;;;4900205;29;20349;-75
2022/09/24 04:41:42;;;;;;;3.00;1.70;;;13.50;88.10;;;;;;4900097;29;20116;-75
2022/09/24 04:44:09;;;;;;;2.45;1.60;;;13.50;88.10;;;;;;4884257;29;20064;-75
2022/09/24 04:46:35;;;;;;;2.35;1.60;;;13.40;88.10;;;;;;4900228;29;20123;-75
2022/09/24 04:49:01;;;;;;;2.63;1.60;;;13.50;88.10;;;;;;4869178;29;20069;-75
2022/09/24 04:51:27;;;;;;;3.13;1.90;;;13.50;88.20;;;;;;4900490;29;20053;-75
2022/09/24 04:53:53;;;;;;;3.05;1.70;;;13.50;88.10;;;;;;4868761;29;20096;-75
2022/09/24 04:56:19;;;;;;;2.28;1.50;;;13.50;88.10;;;;;;4898617;29;20405;-75
2022/09/24 04:58:49;;;;;;;3.17;1.30;;;13.50;88.20;;;;;;4899306;29;20040;-75
2022/09/24 05:01:15;;;;;;;3.13;1.80;;;13.50;88.20;;;;;;4883103;29;20048;-75
2022/09/24 05:03:40;;;;;;;2.15;1.55;;;13.50;88.20;;;;;;4882787;29;20392;-75
2022/09/24 05:06:06;;;;;;;2.45;1.67;;;13.50;88.20;;;;;;4866743;29;20511;-75
2022/09/24 05:08:32;;;;;;;2.45;1.70;;;13.50;88.20;;;;;;4898473;29;20492;-75
2022/09/24 05:10:58;;;;;;;2.50;1.77;;;13.50;88.20;;;;;;4899280;29;20508;-76
2022/09/24 05:13:25;;;;;;;3.10;1.80;;;13.50;88.20;;;;;;4883410;29;20037;-75
2022/09/24 05:15:50;;;;;;;3.20;2.20;;;13.50;88.20;;;;;;4899137;29;20135;-75
2022/09/24 05:18:16;;;;;;;3.67;2.10;;;13.50;88.20;;;;;;4898684;29;20060;-75
2022/09/24 05:20:42;;;;;;;3.42;2.05;;;13.50;88.20;;;;;;4882142;29;20072;-75
2022/09/24 05:23:07;;;;;;;3.22;1.85;;;13.50;88.20;;;;;;4897749;29;20120;-75
2022/09/24 05:27:07;;;;;;;3.40;2.00;;;13.50;88.20;;;;;;4898893;29;20400;-75
2022/09/24 05:28:20;;;;;;;2.83;2.00;;;13.50;88.20;;;;;;4897468;29;20579;-75
2022/09/24 05:30:46;;;;;;;2.85;1.80;;;13.60;88.30;;;;;;4897305;29;20143;-76
2022/09/24 05:33:12;;;;;;;3.38;1.80;;;13.50;88.20;;;;;;4897735;29;20067;-75
2022/09/24 05:35:38;;;;;;;3.05;1.85;;;13.50;88.20;;;;;;4898497;29;20571;-76
2022/09/24 05:38:03;;;;;;;3.53;2.10;;;13.50;88.20;;;;;;4899688;29;20025;-75
2022/09/24 05:43:18;;;;;;;3.92;2.17;;;13.50;88.20;;;;;;4897207;29;20044;-75
2022/09/24 05:45:44;;;;;;;3.78;2.13;;;13.50;88.20;;;;;;4881301;29;20045;-75
2022/09/24 05:48:10;;;;;;;3.13;2.08;;;13.50;88.30;;;;;;4897528;29;20070;-75
2022/09/24 05:50:36;;;;;;;3.25;1.98;;;13.50;88.20;;;;;;4897044;29;20040;-75
2022/09/24 05:53:04;;;;;;;3.67;2.13;;;13.50;88.20;;;;;;4867123;29;20212;-76
2022/09/24 05:55:31;;;;;;;2.92;2.00;;;13.50;88.20;;;;;;4843615;29;20120;-75
2022/09/24 05:58:06;;;;;;;2.90;1.88;;;13.50;88.20;;;;;;4851859;29;20081;-77
2022/09/24 06:00:32;;;;;;;2.92;1.83;;;13.60;88.30;;;;;;4828785;29;20034;-76
2022/09/24 06:03:04;;;;;;;2.97;1.90;;;13.50;88.20;;;;;;4826424;29;20204;-76
2022/09/24 06:05:30;;;;;;;3.53;2.00;;;13.50;88.20;;;;;;4842630;29;20044;-76
2022/09/24 06:07:58;;;;;;;3.25;1.95;;;13.50;88.20;;;;;;4841705;29;20514;-76
2022/09/24 06:10:25;;;;;;;2.78;1.80;;;13.50;88.20;;;;;;4811615;29;20133;-75
2022/09/24 06:12:52;;;;;;;3.53;2.20;;;13.50;88.30;;;;;;4839887;29;20501;-77
2022/09/24 06:15:19;;;;;;;3.15;1.88;;;13.50;88.30;;;;;;4838131;29;20129;-76
2022/09/24 06:17:45;;;;;;;2.20;1.52;;;13.50;88.30;;;;;;4822996;29;20061;-77
2022/09/24 06:20:11;;;;;;;2.85;1.80;;;13.50;88.40;;;;;;4809585;29;20520;-77
2022/09/24 06:22:37;;;;;;;3.25;1.90;;;13.50;88.40;;;;;;4826100;29;20045;-77
2022/09/24 06:25:03;;;;;;;2.67;1.55;;;13.40;88.30;;;;;;4826386;29;20038;-77
2022/09/24 06:27:28;;;;;;;2.10;1.58;;;13.50;88.40;;;;;;4891617;29;20036;-77
2022/09/24 06:29:54;;;;;;;3.15;1.90;;;13.50;88.40;;;;;;4899856;29;20399;-77
2022/09/24 06:32:22;;;;;;;3.67;2.20;;;13.50;88.40;;;;;;4899735;29;20391;-77
2022/09/24 06:34:48;;;;;;;2.03;1.63;;;13.50;88.50;;;;;;4898849;29;20044;-77
2022/09/24 06:37:14;;;;;;;2.40;1.67;;;13.50;88.50;;;;;;4882781;29;20510;-77
2022/09/24 06:39:40;;;;;;;3.40;1.90;;;13.60;88.70;;;;;;4883155;29;20024;-77
2022/09/24 06:42:06;;;;;;;2.95;1.80;;;13.60;88.50;;;;;;4882013;29;20439;-76
2022/09/24 06:44:33;;;;;;;4.35;1.83;;;13.50;88.60;;;;;;4898736;29;20042;-77
2022/09/24 06:47:00;;;;;;;3.17;1.98;;;13.50;88.50;;;;;;4882239;29;20475;-77
2022/09/24 06:49:26;;;;;;;3.17;1.70;;;13.50;88.60;;;;;;4898588;29;20033;-77
2022/09/24 06:51:53;;;;;;;3.03;1.67;;;13.50;88.70;;;;;;4898502;29;20125;-77
2022/09/24 06:54:19;;;;;;;1.88;1.40;;;13.50;88.70;;;;;;4898456;29;20496;-75
2022/09/24 06:56:45;;;;;;;2.67;1.60;;;13.50;88.60;;;;;;4882279;29;20045;-77
2022/09/24 06:59:12;;;;;;;2.92;1.77;;;13.50;88.70;;;;;;4898644;29;20033;-77
2022/09/24 07:01:37;;;;;;;3.47;2.00;;;13.50;88.70;;;;;;4898549;29;20072;-77
2022/09/24 07:04:03;;;;;;;2.90;1.58;;;13.50;88.70;;;;;;4899351;29;20032;-75
2022/09/24 07:07:28;;;;;;;4.03;1.70;;;13.50;88.70;;;;;;4873645;29;20506;-77
2022/09/24 07:09:15;;;;;;;2.67;1.65;;;13.50;88.80;;;;;;4898282;29;20128;-77
2022/09/24 07:11:43;;;;;;;2.38;1.58;;;13.50;88.90;;;;;;4866604;29;20047;-77
2022/09/24 07:14:09;;;;;;;2.60;1.77;;;13.40;88.80;;;;;;4898005;29;20040;-77
2022/09/24 07:16:35;;;;;;;2.28;1.40;;;13.50;89.00;;;;;;4862114;29;20041;-77
2022/09/24 07:19:01;;;;;;;2.30;1.67;;;13.40;89.00;;;;;;4898528;29;20059;-76
2022/09/24 07:21:27;;;;;;;2.50;1.67;;;13.40;89.00;;;;;;4881386;29;20044;-77
2022/09/24 07:23:53;;;;;;;2.85;1.88;;;13.60;89.10;;;;;;4881211;29;20043;-77
2022/09/24 07:26:19;;;;;;;2.70;1.80;;;13.50;89.10;;;;;;4898540;29;20049;-77
2022/09/24 07:28:44;;;;;;;2.17;1.60;;;13.50;89.10;;;;;;4898059;29;20395;-77
2022/09/24 07:31:10;;;;;;;2.45;1.48;;;13.50;89.00;;;;;;4898262;29;20488;-76
2022/09/24 07:33:36;;;;;;;2.63;1.77;;;13.50;89.10;;;;;;4898665;29;20037;-76
2022/09/24 07:36:06;;;;;;;2.85;1.77;;;13.50;89.20;;;;;;4898963;29;20044;-76
2022/09/24 07:38:34;;;;;;;1.45;1.23;;;13.50;89.20;;;;;;4882495;29;20505;-76
2022/09/24 07:40:59;;;;;;;2.35;1.50;;;13.50;89.20;;;;;;4899855;29;20044;-76
2022/09/24 07:43:25;;;;;;;2.47;1.55;;;13.50;89.20;;;;;;4900746;29;20037;-76
2022/09/24 07:45:52;;;;;;;3.13;1.75;;;13.50;89.20;;;;;;4902099;29;20040;-76
2022/09/24 07:48:18;;;;;;;2.42;1.70;;;13.60;89.20;;;;;;4902026;29;20100;-76
2022/09/24 07:50:44;;;;;;;2.78;1.60;;;13.50;89.10;;;;;;4902100;29;20045;-76
2022/09/24 07:53:11;;;;;;;2.63;1.70;;;13.50;89.20;;;;;;4900293;29;20051;-76
2022/09/24 07:55:39;;;;;;;3.05;1.98;;;13.50;89.30;;;;;;4900195;29;20103;-76
2022/09/24 07:58:06;;;;;;;3.47;1.90;;;13.60;89.40;;;;;;4868035;29;20056;-75
2022/09/24 08:00:32;;;;;;;2.45;1.73;;;13.60;89.30;;;;;;4867406;29;20036;-75
2022/09/24 08:02:58;;;;;;;2.33;1.70;;;13.60;89.30;;;;;;4898683;29;20112;-76
2022/09/24 08:05:24;;;;;;;2.25;1.50;;;13.60;89.30;;;;;;4881136;29;20041;-76
2022/09/24 08:07:51;;;;;;;1.90;1.40;;;13.60;89.20;;;;;;4902011;29;20029;-76
2022/09/24 08:10:17;;;;;;;2.90;1.60;;;13.70;89.40;;;;;;4889312;29;20039;-77
2022/09/24 08:12:43;;;;;;;2.63;1.63;;;13.60;89.20;;;;;;4883867;29;20025;-76
2022/09/24 08:15:09;;;;;;;3.03;2.00;;;13.60;89.20;;;;;;4888662;29;20060;-76
2022/09/24 08:17:35;;;;;;;3.17;1.98;;;13.60;89.20;;;;;;4901890;29;20040;-76
2022/09/24 08:20:01;;;;;;;2.85;1.67;;;13.60;89.30;;;;;;4869253;29;20045;-76
2022/09/24 08:22:27;;;;;;;2.40;1.60;;;13.60;89.40;;;;;;4901863;29;20570;-76
2022/09/24 08:24:53;;;;;;;3.08;1.90;;;13.60;89.40;;;;;;4901555;29;20033;-76
2022/09/24 08:27:19;;;;;;;3.38;1.85;;;13.60;89.30;;;;;;4884677;29;20036;-76
2022/09/24 08:29:45;;;;;;;2.53;1.42;;;13.70;89.30;;;;;;4901354;29;20116;-74
2022/09/24 08:32:12;;;;;;;2.92;1.70;;;13.70;89.30;;;;;;4904973;29;20549;-74
2022/09/24 08:34:39;;;;;;;2.22;1.58;;;13.70;89.30;;;;;;4854923;29;20045;-74
2022/09/24 08:37:06;;;;;;;2.75;1.83;;;13.70;89.30;;;;;;4881230;29;20037;-74
2022/09/24 08:39:32;;;;;;;3.03;1.75;;;13.70;89.40;;;;;;4882316;29;20040;-75
2022/09/24 08:42:04;;;;;;;2.35;1.70;;;13.70;89.30;;;;;;4881157;29;20033;-75
2022/09/24 08:47:42;;;;;;;2.60;1.85;;;13.80;89.40;;;;;;4897379;29;20053;-75
2022/09/24 08:50:24;;;;;;;2.13;1.58;;;13.80;89.40;;;;;;4866360;29;20072;-75
2022/09/24 08:53:14;;;;;;;2.50;1.50;;;13.90;89.40;;;;;;4880302;29;20514;-75
2022/09/24 08:55:46;;;;;;;1.88;1.30;;;13.80;89.40;;;;;;4884678;29;20112;-74
2022/09/24 08:58:32;;;;;;;1.70;1.23;;;13.90;89.40;;;;;;4865090;29;20045;-75
2022/09/24 09:01:14;;;;;;;2.92;1.73;;;13.90;89.40;;;;;;4873466;29;20396;-75
2022/09/24 09:03:44;;;;;;;;;;;13.90;89.30;;;;;;4897145;29;20069;-75
2022/09/24 09:06:32;;;;;;;2.57;1.50;;;13.80;89.30;;;;;;4897867;29;19911;-75
2022/09/24 09:09:11;;;;;;;1.67;1.30;;;13.80;89.30;;;;;;4883004;29;20097;-75
2022/09/24 09:11:39;;;;;;;2.20;1.50;;;13.80;89.50;;;;;;4897493;29;20048;-75
2022/09/24 09:14:16;;;;;;;2.72;1.80;;;13.70;89.40;;;;;;4897182;29;20100;-75
2022/09/24 09:16:57;;;;;;;2.25;1.50;;;13.80;89.60;;;;;;4880428;29;20075;-75
2022/09/24 09:19:29;;;;;;;2.40;1.50;;;13.80;89.60;;;;;;4896712;29;20044;-75
2022/09/24 09:22:00;;;;;;;;;;;13.80;89.60;;;;;;4897233;29;20032;-75
2022/09/24 09:24:40;;;;;;;2.33;1.40;;;13.80;89.60;;;;;;4896523;29;19994;-75
2022/09/24 09:27:13;;;;;;;1.65;1.20;;;13.80;89.60;;;;;;4880170;29;20068;-75
2022/09/24 09:29:41;;;;;;;2.42;1.50;;;13.80;89.60;;;;;;4880451;29;20099;-75
2022/09/24 09:32:31;;;;;;;1.90;1.30;;;13.80;89.60;;;;;;4880368;29;20076;-75
2022/09/24 09:35:20;;;;;;;1.83;1.35;;;13.90;89.60;;;;;;4879765;29;20491;-75
2022/09/24 09:37:58;;;;;;;3.55;1.45;;;13.90;89.50;;;;;;4879940;29;20048;-75
2022/09/24 09:40:38;;;;;;;2.08;1.40;;;13.90;89.60;;;;;;4897384;29;20048;-75
2022/09/24 09:43:08;;;;;;;1.45;1.23;;;13.90;89.60;;;;;;4882162;29;20068;-75
2022/09/24 09:45:58;;;;;;;2.20;1.58;;;13.80;89.50;;;;;;4897422;29;20052;-75
2022/09/24 09:48:30;;;;;;;2.50;1.55;;;13.80;89.60;;;;;;4867244;29;20575;-75
2022/09/24 09:51:03;;;;;;;1.88;1.52;;;13.90;89.70;;;;;;4898065;29;20136;-75
2022/09/24 09:53:31;;;;;;;2.80;2.00;;;13.80;89.60;;;;;;4864662;29;20108;-75
2022/09/24 09:56:03;;;;;;;3.78;2.35;;;13.90;89.70;;;;;;4898263;29;20067;-75
2022/09/24 09:58:33;;;;;;;3.10;1.80;;;13.90;89.70;;;;;;4864920;29;20037;-75
2022/09/24 10:01:05;;;;;;;3.05;1.60;;;13.80;89.70;;;;;;4896591;29;20036;-75
2022/09/24 10:03:45;;;;;;;2.30;1.60;;;13.90;89.80;;;;;;4896849;29;20107;-75
2022/09/24 10:06:22;;;;;;;2.42;1.50;;;14.00;89.70;;;;;;4876168;29;20508;-75
2022/09/24 10:08:48;;;;;;;3.03;1.80;;;14.10;89.70;;;;;;4897298;29;20040;-75
2022/09/24 10:11:16;;;;;;;2.92;1.50;;;14.00;89.60;;;;;;4896709;29;20041;-75
2022/09/24 10:13:42;;;;;;;3.35;1.80;;;14.00;89.60;;;;;;4864419;29;20041;-75
2022/09/24 10:16:09;;;;;;;2.65;1.70;;;14.00;89.60;;;;;;4877382;29;20041;-75
2022/09/24 10:18:41;;;;;;;2.45;1.65;;;14.10;89.70;;;;;;4896775;29;20072;-75
2022/09/24 10:21:11;;;;;;;2.45;1.55;;;14.10;89.70;;;;;;4896622;29;20487;-75
2022/09/24 10:23:43;;;;;;;1.77;1.35;;;14.10;89.70;;;;;;4864861;29;20124;-75
2022/09/24 10:26:10;;;;;;;2.50;1.60;;;14.10;89.70;;;;;;4868175;29;20045;-75
2022/09/24 10:31:38;;;;;;;1.65;1.40;;;14.00;89.70;;;;;;4896228;29;20048;-75
2022/09/24 10:34:21;;;;;;;3.50;2.00;;;14.00;89.70;;;;;;4864761;29;20057;-75
2022/09/24 10:36:56;;;;;;;1.92;1.25;;;14.10;89.80;;;;;;4896412;29;20284;-75
2022/09/24 10:39:22;;;;;;;2.70;1.70;;;14.10;89.70;;;;;;4880693;29;20491;-76
2022/09/24 10:41:50;;;;;;;2.42;1.40;;;14.10;89.70;;;;;;4896898;29;20092;-75
2022/09/24 10:44:18;;;;;;;2.30;1.33;;;14.20;89.70;;;;;;4873716;29;20068;-75
2022/09/24 10:47:10;;;;;;;1.40;1.10;;;14.30;89.60;;;;;;4880141;29;20044;-75
2022/09/24 10:50:06;;;;;;;1.92;1.25;;;14.30;89.60;;;;;;4852614;29;20047;-75
2022/09/24 10:52:50;;;;;;;2.25;1.35;;;14.20;89.60;;;;;;4896753;29;20060;-75
2022/09/24 10:55:38;;;;;;;2.20;1.45;;;14.20;89.50;;;;;;4897041;29;20041;-75
2022/09/24 10:58:26;;;;;;;1.40;1.15;;;14.20;89.60;;;;;;4898907;29;20111;-75
2022/09/24 11:01:23;;;;;;;2.40;1.58;;;14.20;89.70;;;;;;4897587;29;20033;-75
2022/09/24 11:04:16;;;;;;;2.58;1.65;;;14.10;89.70;;;;;;4898287;29;20049;-75
2022/09/24 11:07:12;;;;;;;2.60;1.55;;;14.20;89.80;;;;;;4882912;29;20039;-75
2022/09/24 11:10:06;;;;;;;3.22;1.75;;;14.10;89.80;;;;;;4874187;29;20039;-75
2022/09/24 11:12:59;;;;;;;2.72;1.45;;;14.20;89.80;;;;;;4889528;29;20088;-75
2022/09/24 11:15:55;;;;;;;2.78;1.70;;;14.20;89.80;;;;;;4900909;29;20052;-75
2022/09/24 11:18:51;;;;;;;2.50;1.60;;;14.10;89.80;;;;;;4888519;29;20139;-75
2022/09/24 11:21:44;;;;;;;2.40;1.52;;;14.20;90.00;;;;;;4900685;29;20487;-75
2022/09/24 11:24:31;;;;;;;1.38;1.08;;;14.20;89.90;;;;;;4902339;29;20045;-76
2022/09/24 11:27:12;;;;;;;2.22;1.40;;;14.10;90.00;;;;;;4901539;29;20049;-75
2022/09/24 11:30:01;;;;;;;2.47;1.45;;;14.30;90.00;;;;;;4877568;29;20044;-75
2022/09/24 11:32:48;;;;;;;2.13;1.40;;;14.30;90.00;;;;;;4899403;29;20036;-75
2022/09/24 11:35:43;;;;;;;2.00;1.40;;;14.20;90.00;;;;;;4900112;29;20151;-75
2022/09/24 11:38:16;;;;;;;1.80;1.20;;;14.10;90.00;;;;;;4885883;29;20029;-77
2022/09/24 11:41:01;;;;;;;2.50;1.70;;;14.10;90.00;;;;;;4899815;29;20033;-76
2022/09/24 11:43:55;;;;;;;1.42;1.20;;;14.10;90.00;;;;;;4903653;29;20057;-76
2022/09/24 11:46:39;;;;;;;2.47;1.50;;;14.20;90.00;;;;;;4890992;29;20104;-76
2022/09/24 11:49:43;;;;;;;2.13;1.40;;;14.10;90.00;;;;;;4904669;29;20052;-76
2022/09/24 11:52:32;;;;;;;2.67;1.70;;;14.20;90.00;;;;;;4904421;29;20044;-77
2022/09/24 11:55:13;;;;;;;2.55;1.52;;;14.10;90.00;;;;;;4877455;29;20067;-76
2022/09/24 11:57:42;;;;;;;;;;;14.00;90.00;;;;;;4900377;29;20040;-76
2022/09/24 12:00:18;;;;;;;2.05;1.45;;;14.10;90.00;;;;;;4870133;29;19908;-76
2022/09/24 12:02:56;;;;;;;2.13;1.35;;;14.10;90.10;;;;;;4882698;29;20037;-76
2022/09/24 12:05:36;;;;;;;3.25;1.90;;;14.20;90.10;;;;;;4883540;29;20040;-77
2022/09/24 12:08:16;;;;;;;2.15;1.48;;;14.20;90.00;;;;;;4902013;29;20045;-77
2022/09/24 12:10:50;;;;;;;1.77;1.40;;;14.20;90.00;;;;;;4885949;29;20033;-77
2022/09/24 12:13:23;;;;;;;2.53;1.73;;;14.20;90.00;;;;;;4898521;29;20104;-76
2022/09/24 12:16:02;;;;;;;2.33;1.52;;;14.30;90.00;;;;;;4900228;29;20037;-77
2022/09/24 12:18:46;;;;;;;1.63;1.20;;;14.20;90.00;;;;;;4871509;29;20041;-77
2022/09/24 12:21:19;;;;;;;2.50;1.55;;;14.30;90.00;;;;;;4872573;29;20033;-77
2022/09/24 12:23:47;;;;;;;2.40;1.45;;;14.40;90.00;;;;;;4871857;29;20052;-77
2022/09/24 12:26:16;;;;;;;3.15;1.90;;;14.40;89.80;;;;;;4872063;29;20044;-77
2022/09/24 12:35:10;;;;;;;2.50;1.55;;;14.40;89.80;;;;;;4895454;29;20036;-77
2022/09/24 12:37:41;;;;;;;1.75;1.25;;;14.40;90.00;;;;;;4877757;29;20045;-79
2022/09/24 12:40:37;;;;;;;2.15;1.50;;;14.40;89.90;;;;;;4913453;29;20037;-77
2022/09/24 12:43:17;;;;;;;1.85;1.38;;;14.50;90.00;;;;;;4904375;29;20060;-77
2022/09/24 12:45:44;;;;;;;2.38;1.33;;;14.40;90.00;;;;;;4901193;29;20120;-78
2022/09/24 12:48:15;;;;;;;2.20;1.42;;;14.50;90.00;;;;;;4880995;29;20098;-78
2022/09/24 12:50:40;;;;;;;2.42;1.40;;;14.50;90.00;;;;;;4896768;29;20040;-78
2022/09/24 12:53:26;;;;;;;2.47;1.70;;;14.50;90.00;;;;;;4897607;29;20039;-78
2022/09/24 12:55:58;;;;;;;1.50;1.20;;;14.50;90.00;;;;;;4865317;29;20045;-78
2022/09/24 12:58:33;;;;;;;2.00;1.48;;;14.40;90.00;;;;;;4870899;29;20044;-78
2022/09/24 13:01:21;;;;;;;1.77;1.38;;;14.50;90.00;;;;;;4865393;29;20112;-78
2022/09/24 13:04:09;;;;;;;2.03;1.48;;;14.50;90.00;;;;;;4896894;29;20068;-78
2022/09/24 13:06:37;;;;;;;1.75;1.10;;;14.50;90.00;;;;;;4896780;29;20088;-78
2022/09/24 13:09:23;;;;;;;1.90;1.40;;;14.60;90.00;;;;;;4880355;29;20033;-78
2022/09/24 13:12:13;;;;;;;1.40;1.10;;;14.50;90.00;;;;;;4874287;29;20041;-78
2022/09/24 13:14:42;;;;;;;1.42;1.10;;;14.50;90.00;;;;;;4881980;29;20078;-78
2022/09/24 13:17:13;;;;;;;2.55;1.45;;;14.50;90.00;;;;;;4862262;29;20059;-78
2022/09/24 13:19:43;;;;;;;1.83;1.20;;;14.50;90.00;;;;;;4864780;29;20056;-78
2022/09/24 13:22:25;;;;;;;1.45;1.20;;;14.50;90.00;;;;;;4896691;29;20043;-78
2022/09/24 13:25:04;;;;;;;1.23;1.02;;;14.50;90.10;;;;;;4896549;29;20113;-79
2022/09/24 13:27:37;;;;;;;1.65;1.10;;;14.50;90.00;;;;;;4865842;29;20447;-78
2022/09/24 13:30:15;;;;;;;1.67;1.20;;;14.50;90.00;;;;;;4878969;29;20055;-78